Flight Briefing for CPX652

Departure Arrival
Lynden Pindling International Airport (MYNN)
Click to view FAA NOTAMS
Miami International Airport (KMIA)
Click to view FAA NOTAMS
Departure Time Arrival Time
N/A N/A
Aircraft Distance
SF340AF 160nm
Departure METAR Arrival METAR
MYNN 200800Z 07004KT 9999 -SHRA FEW018 SCT100 BKN200 22/19 A2994 KMIA 200853Z 33007KT 10SM BKN004 BKN031 OVC050 18/18 A2995 RMK AO2 RAE02 SLP143 P0000 60000 T01830183 56014
Suggested Route
ZQA FOWEE9


View recent IFR Routes data
Notes



Charts and Procedures

Charts for MYNN
No chart available
Charts for KMIA
No chart available

Windy.com Weather Map